Time;durP1;ratioP1;P1;durP2;ratioP2;P2;SDS_P1;SDS_P2;PMS_P1;PMS_P2;Temp;Humidity;BMP_temperature;BMP_pressure;BME280_temperature;BME280_humidity;BME280_pressure;Samples;Min_cycle;Max_cycle;Signal;HPM_P1;HPM_P2
2022/05/08 00:02:26;;;;;;;22.70;18.43;;;;;;;;;;5052979;28;20421;-76
2022/05/08 00:04:53;;;;;;;28.57;19.53;;;;;;;;;;5052033;28;20436;-76
2022/05/08 00:07:22;;;;;;;25.13;20.80;;;;;;;;;;5052888;28;20964;-76
2022/05/08 00:09:48;;;;;;;27.40;20.90;;;;;;;;;;5052849;28;20495;-76
2022/05/08 00:12:15;;;;;;;26.92;22.08;;;;;;;;;;5052949;28;20416;-76
2022/05/08 00:14:41;;;;;;;23.77;19.38;;;;;;;;;;5052512;28;20213;-77
2022/05/08 00:17:11;;;;;;;24.67;18.88;;;;;;;;;;5053062;28;20182;-76
2022/05/08 00:19:38;;;;;;;23.93;20.10;;;;;;;;;;5053007;28;20178;-76
2022/05/08 00:22:05;;;;;;;24.93;20.50;;;;;;;;;;5052735;28;20370;-76
2022/05/08 00:24:31;;;;;;;24.02;20.42;;;;;;;;;;5034334;28;20972;-77
2022/05/08 00:26:57;;;;;;;25.60;19.77;;;;;;;;;;5052652;28;20216;-76
2022/05/08 00:29:23;;;;;;;23.63;18.47;;;;;;;;;;5040277;28;20804;-76
2022/05/08 00:31:49;;;;;;;22.47;18.73;;;;;;;;;;5052652;28;20554;-77
2022/05/08 00:34:15;;;;;;;25.07;20.70;;;;;;;;;;5052115;28;20436;-76
2022/05/08 00:36:41;;;;;;;25.20;18.93;;;;;;;;;;5052515;28;20404;-76
2022/05/08 00:39:07;;;;;;;27.80;21.23;;;;;;;;;;5052718;28;20401;-77
2022/05/08 00:41:33;;;;;;;27.90;21.70;;;;;;;;;;5052826;28;20885;-76
2022/05/08 00:43:59;;;;;;;23.40;19.17;;;;;;;;;;5052170;28;20511;-76
2022/05/08 00:46:27;;;;;;;24.00;19.20;;;;;;;;;;5052437;28;20738;-77
2022/05/08 00:48:53;;;;;;;30.50;21.77;;;;;;;;;;5051153;28;20394;-76
2022/05/08 00:51:19;;;;;;;32.07;23.30;;;;;;;;;;5052476;28;20409;-76
2022/05/08 00:53:50;;;;;;;31.70;22.60;;;;;;;;;;5052147;28;20407;-76
2022/05/08 00:56:16;;;;;;;35.97;24.55;;;;;;;;;;5052474;28;20487;-77
2022/05/08 00:58:43;;;;;;;40.17;30.17;;;;;;;;;;5052227;28;20180;-77
2022/05/08 01:01:10;;;;;;;34.80;26.70;;;;;;;;;;5052417;28;20470;-78
2022/05/08 01:03:36;;;;;;;34.40;27.27;;;;;;;;;;5052090;28;20428;-78
2022/05/08 01:06:07;;;;;;;35.13;26.20;;;;;;;;;;5052640;28;20674;-77
2022/05/08 01:08:33;;;;;;;32.50;25.10;;;;;;;;;;5052338;28;20463;-75
2022/05/08 01:11:01;;;;;;;36.90;29.37;;;;;;;;;;5052261;28;20418;-76
2022/05/08 01:13:27;;;;;;;39.13;29.58;;;;;;;;;;5051818;28;20458;-76
2022/05/08 01:15:55;;;;;;;43.70;30.67;;;;;;;;;;5051885;28;20268;-76
2022/05/08 01:18:21;;;;;;;54.08;37.65;;;;;;;;;;5056099;28;20416;-76
2022/05/08 01:20:48;;;;;;;42.30;32.37;;;;;;;;;;5055771;28;20885;-76
2022/05/08 01:23:19;;;;;;;51.03;36.28;;;;;;;;;;5055664;28;20408;-78
2022/05/08 01:26:03;;;;;;;44.33;30.37;;;;;;;;;;5054778;28;20197;-76
2022/05/08 01:28:29;;;;;;;52.80;35.73;;;;;;;;;;5055653;28;20444;-76
2022/05/08 01:30:55;;;;;;;57.47;39.60;;;;;;;;;;5037832;28;20474;-78
2022/05/08 01:33:22;;;;;;;58.07;41.73;;;;;;;;;;5055223;28;20751;-75
2022/05/08 01:35:49;;;;;;;55.30;39.80;;;;;;;;;;5055663;28;20466;-75
2022/05/08 01:38:16;;;;;;;52.47;38.60;;;;;;;;;;5037604;28;20424;-76
2022/05/08 01:40:45;;;;;;;59.50;41.83;;;;;;;;;;5055526;28;20412;-75
2022/05/08 01:43:11;;;;;;;58.80;41.10;;;;;;;;;;5054987;28;20409;-75
2022/05/08 01:45:38;;;;;;;53.37;38.63;;;;;;;;;;5055503;28;20443;-75
2022/05/08 01:48:22;;;;;;;58.37;40.87;;;;;;;;;;5055390;28;20490;-78
2022/05/08 01:50:55;;;;;;;64.97;42.33;;;;;;;;;;5040655;28;20413;-79
2022/05/08 01:53:22;;;;;;;55.63;39.60;;;;;;;;;;5055044;28;20409;-78
2022/05/08 01:55:55;;;;;;;63.27;42.90;;;;;;;;;;5055422;28;20400;-78
2022/05/08 01:58:22;;;;;;;67.77;46.43;;;;;;;;;;5055360;28;20451;-78
2022/05/08 02:00:49;;;;;;;66.55;45.15;;;;;;;;;;5055318;28;20499;-77
2022/05/08 02:03:15;;;;;;;64.77;44.13;;;;;;;;;;5054769;28;20178;-77
2022/05/08 02:05:42;;;;;;;59.80;41.87;;;;;;;;;;5055249;28;20445;-78
2022/05/08 02:08:08;;;;;;;65.83;45.87;;;;;;;;;;5055141;28;20459;-78
2022/05/08 02:10:34;;;;;;;65.20;44.27;;;;;;;;;;5054942;28;20416;-78
2022/05/08 02:13:00;;;;;;;63.63;45.20;;;;;;;;;;5054642;28;20408;-78
2022/05/08 02:15:29;;;;;;;63.97;43.03;;;;;;;;;;5054929;28;20435;-78
2022/05/08 02:17:57;;;;;;;61.70;43.80;;;;;;;;;;5055175;28;20416;-78
2022/05/08 02:20:23;;;;;;;63.27;43.53;;;;;;;;;;5054833;28;20409;-79
2022/05/08 02:22:49;;;;;;;58.40;41.87;;;;;;;;;;5054821;28;20415;-78
2022/05/08 02:25:15;;;;;;;60.03;42.90;;;;;;;;;;5036339;28;20755;-78
2022/05/08 02:27:42;;;;;;;65.47;41.43;;;;;;;;;;5053881;28;20558;-78
2022/05/08 02:30:11;;;;;;;61.93;41.90;;;;;;;;;;5048736;28;20432;-77
2022/05/08 02:32:38;;;;;;;59.50;39.77;;;;;;;;;;5054883;28;20407;-78
2022/05/08 02:35:04;;;;;;;61.37;42.87;;;;;;;;;;5054184;28;20428;-79
2022/05/08 02:37:30;;;;;;;64.27;42.67;;;;;;;;;;5054445;28;20521;-78
2022/05/08 02:39:56;;;;;;;55.40;38.67;;;;;;;;;;5054598;28;20417;-78
2022/05/08 02:42:22;;;;;;;57.90;37.47;;;;;;;;;;5054545;28;20417;-78
2022/05/08 02:44:48;;;;;;;48.93;36.27;;;;;;;;;;5054253;28;20433;-78
2022/05/08 02:47:14;;;;;;;51.57;37.40;;;;;;;;;;5054231;28;20464;-79
2022/05/08 02:49:40;;;;;;;52.57;34.60;;;;;;;;;;5052986;28;20865;-79
2022/05/08 02:52:07;;;;;;;42.60;32.23;;;;;;;;;;5054364;28;20425;-78
2022/05/08 02:54:33;;;;;;;47.00;32.93;;;;;;;;;;5052635;28;20542;-78
2022/05/08 02:59:46;;;;;;;44.77;31.47;;;;;;;;;;5054285;28;20413;-79
2022/05/08 03:02:12;;;;;;;45.40;30.73;;;;;;;;;;5054088;28;20820;-78
2022/05/08 03:04:39;;;;;;;41.10;29.13;;;;;;;;;;5053849;28;20771;-79
2022/05/08 03:07:06;;;;;;;34.20;26.00;;;;;;;;;;5054179;28;20466;-78
2022/05/08 03:09:32;;;;;;;34.50;24.63;;;;;;;;;;5053904;28;20412;-79
2022/05/08 03:11:57;;;;;;;28.13;21.93;;;;;;;;;;5054065;28;20402;-77
2022/05/08 03:14:24;;;;;;;30.97;20.47;;;;;;;;;;5053502;28;20574;-78
2022/05/08 03:16:50;;;;;;;31.37;19.87;;;;;;;;;;5053921;28;20402;-78
2022/05/08 03:19:19;;;;;;;27.23;18.03;;;;;;;;;;5053745;28;20444;-78
2022/05/08 03:21:48;;;;;;;23.63;16.90;;;;;;;;;;5053432;28;20421;-78
2022/05/08 03:24:14;;;;;;;21.37;15.67;;;;;;;;;;5053206;28;20432;-78
2022/05/08 03:26:40;;;;;;;22.17;14.00;;;;;;;;;;5053753;28;20456;-78
2022/05/08 03:29:07;;;;;;;19.17;14.63;;;;;;;;;;5053526;28;20410;-77
2022/05/08 03:31:33;;;;;;;25.67;15.93;;;;;;;;;;5053493;28;20960;-79
2022/05/08 03:33:59;;;;;;;22.17;13.93;;;;;;;;;;5052815;28;20528;-78
2022/05/08 03:36:25;;;;;;;19.77;14.33;;;;;;;;;;5053422;28;20419;-78
2022/05/08 03:38:52;;;;;;;19.60;15.37;;;;;;;;;;5053387;28;20425;-78
2022/05/08 03:41:19;;;;;;;18.80;13.77;;;;;;;;;;5053342;28;20412;-78
2022/05/08 03:43:46;;;;;;;17.40;13.00;;;;;;;;;;5052889;28;20805;-78
2022/05/08 03:46:13;;;;;;;20.67;13.00;;;;;;;;;;5053192;28;20587;-79
2022/05/08 03:48:39;;;;;;;16.50;12.63;;;;;;;;;;5053340;28;20468;-78
2022/05/08 03:51:05;;;;;;;16.90;13.40;;;;;;;;;;5035719;28;20417;-78
2022/05/08 03:53:31;;;;;;;19.33;13.03;;;;;;;;;;5052904;28;21313;-78
2022/05/08 03:55:57;;;;;;;19.70;13.37;;;;;;;;;;5053240;28;20411;-79
2022/05/08 03:58:23;;;;;;;21.80;14.23;;;;;;;;;;5053168;28;20412;-79
2022/05/08 04:00:49;;;;;;;19.10;14.33;;;;;;;;;;5053098;28;20435;-79
2022/05/08 04:03:16;;;;;;;17.60;13.77;;;;;;;;;;5052413;28;20420;-78
2022/05/08 04:05:41;;;;;;;23.23;12.50;;;;;;;;;;5052970;28;20889;-78
2022/05/08 04:08:08;;;;;;;16.80;13.03;;;;;;;;;;5052675;28;20537;-78
2022/05/08 04:10:34;;;;;;;16.70;12.53;;;;;;;;;;5052896;28;20408;-79
2022/05/08 04:13:00;;;;;;;15.17;12.23;;;;;;;;;;5052609;28;20376;-80
2022/05/08 04:18:11;;;;;;;18.67;12.37;;;;;;;;;;5053104;28;20404;-79
2022/05/08 04:20:37;;;;;;;18.60;12.43;;;;;;;;;;5052898;28;20387;-79
2022/05/08 04:25:54;;;;;;;17.63;12.00;;;;;;;;;;5052988;28;20502;-78
2022/05/08 04:28:21;;;;;;;15.37;13.03;;;;;;;;;;5052390;28;20543;-78
2022/05/08 04:30:47;;;;;;;15.60;11.97;;;;;;;;;;5052662;28;20416;-77
2022/05/08 04:33:13;;;;;;;17.13;13.40;;;;;;;;;;5052163;28;20420;-78
2022/05/08 04:35:39;;;;;;;22.33;13.27;;;;;;;;;;5052612;28;20387;-77
2022/05/08 04:38:05;;;;;;;15.73;12.03;;;;;;;;;;5052522;28;20503;-79
2022/05/08 04:40:31;;;;;;;22.00;13.07;;;;;;;;;;5052416;28;20877;-79
2022/05/08 04:42:57;;;;;;;20.40;12.70;;;;;;;;;;5052545;28;20416;-78
2022/05/08 04:45:23;;;;;;;18.53;11.83;;;;;;;;;;5052416;28;20775;-79
2022/05/08 04:47:49;;;;;;;18.87;13.30;;;;;;;;;;5052841;28;20541;-77
2022/05/08 04:50:15;;;;;;;16.90;12.40;;;;;;;;;;5052472;28;20831;-79
2022/05/08 04:52:41;;;;;;;18.37;13.50;;;;;;;;;;5056126;28;20412;-78
2022/05/08 04:55:07;;;;;;;16.30;14.60;;;;;;;;;;5056031;28;20432;-78
2022/05/08 04:57:33;;;;;;;16.43;13.30;;;;;;;;;;5038755;28;20427;-78
2022/05/08 05:00:00;;;;;;;18.40;14.47;;;;;;;;;;5056412;28;20420;-79
2022/05/08 05:02:26;;;;;;;24.37;13.87;;;;;;;;;;5056236;28;20435;-78
2022/05/08 05:04:52;;;;;;;22.37;14.60;;;;;;;;;;5055814;28;20444;-79
2022/05/08 05:07:18;;;;;;;21.60;15.47;;;;;;;;;;5056160;28;20477;-78
2022/05/08 05:09:44;;;;;;;18.77;16.23;;;;;;;;;;5056212;28;20408;-79
2022/05/08 05:12:10;;;;;;;18.60;14.33;;;;;;;;;;5056234;28;20400;-78
2022/05/08 05:14:36;;;;;;;21.23;16.40;;;;;;;;;;5055458;28;20443;-79
2022/05/08 05:17:02;;;;;;;24.17;16.93;;;;;;;;;;5056260;28;20762;-78
2022/05/08 05:19:28;;;;;;;21.47;16.53;;;;;;;;;;5056186;28;20417;-77
2022/05/08 05:21:55;;;;;;;23.03;17.03;;;;;;;;;;5055989;28;20423;-78
2022/05/08 05:24:21;;;;;;;22.97;15.50;;;;;;;;;;5055498;28;20451;-77
2022/05/08 05:26:47;;;;;;;20.13;15.00;;;;;;;;;;5055611;28;20791;-79
2022/05/08 05:29:14;;;;;;;20.43;16.70;;;;;;;;;;5055758;28;20432;-79
2022/05/08 05:31:40;;;;;;;21.90;16.70;;;;;;;;;;5055952;28;20458;-78
2022/05/08 05:34:06;;;;;;;22.67;17.80;;;;;;;;;;5055289;28;20399;-78
2022/05/08 05:36:32;;;;;;;20.73;16.57;;;;;;;;;;5055534;28;20405;-77
2022/05/08 05:38:58;;;;;;;20.87;17.47;;;;;;;;;;5055531;28;20762;-78
2022/05/08 05:41:24;;;;;;;20.83;17.60;;;;;;;;;;5055655;28;20503;-77
2022/05/08 05:43:50;;;;;;;23.23;17.07;;;;;;;;;;5055130;28;20429;-78
2022/05/08 05:49:01;;;;;;;20.90;16.93;;;;;;;;;;5055531;28;20412;-78
2022/05/08 05:51:27;;;;;;;20.50;16.10;;;;;;;;;;5055469;28;20375;-77
2022/05/08 05:53:53;;;;;;;23.47;16.80;;;;;;;;;;5037114;28;20566;-78
2022/05/08 05:56:19;;;;;;;22.87;17.43;;;;;;;;;;5037646;28;20876;-79
2022/05/08 05:58:45;;;;;;;23.90;17.17;;;;;;;;;;5055259;28;20379;-79
2022/05/08 06:01:11;;;;;;;22.40;17.93;;;;;;;;;;5055369;28;20375;-78
2022/05/08 06:03:38;;;;;;;33.20;19.80;;;;;;;;;;5053543;28;20929;-78
2022/05/08 06:06:04;;;;;;;25.20;17.73;;;;;;;;;;5055199;28;20730;-77
2022/05/08 06:08:30;;;;;;;23.03;17.83;;;;;;;;;;5055007;28;20484;-77
2022/05/08 06:10:56;;;;;;;22.53;17.93;;;;;;;;;;5054955;28;20504;-78
2022/05/08 06:13:22;;;;;;;23.37;16.77;;;;;;;;;;5054580;28;20448;-77
2022/05/08 06:15:48;;;;;;;36.43;16.47;;;;;;;;;;5037316;28;20404;-78
2022/05/08 06:18:14;;;;;;;20.33;16.17;;;;;;;;;;5054771;28;20483;-77
2022/05/08 06:20:40;;;;;;;24.13;16.63;;;;;;;;;;5054973;28;20775;-77
2022/05/08 06:23:07;;;;;;;25.37;17.10;;;;;;;;;;5054082;28;20495;-78
2022/05/08 06:25:33;;;;;;;17.67;15.00;;;;;;;;;;5054771;28;20816;-78
2022/05/08 06:28:00;;;;;;;21.90;15.27;;;;;;;;;;5020583;28;20545;-77
2022/05/08 06:30:26;;;;;;;27.13;14.50;;;;;;;;;;5054544;28;20519;-77
2022/05/08 06:32:52;;;;;;;20.87;13.03;;;;;;;;;;5054304;28;20435;-78
2022/05/08 06:35:18;;;;;;;19.93;14.23;;;;;;;;;;5054184;28;20447;-77
2022/05/08 06:37:44;;;;;;;16.73;11.73;;;;;;;;;;5054481;28;20395;-78
2022/05/08 06:40:10;;;;;;;22.63;14.00;;;;;;;;;;5054296;28;20384;-77
2022/05/08 06:42:36;;;;;;;18.37;12.50;;;;;;;;;;5054279;28;20449;-77
2022/05/08 06:45:02;;;;;;;27.40;13.37;;;;;;;;;;5053782;28;20969;-77
2022/05/08 06:47:28;;;;;;;26.00;14.43;;;;;;;;;;5053605;28;20458;-78
2022/05/08 06:49:54;;;;;;;21.77;13.60;;;;;;;;;;5054097;28;20405;-77
2022/05/08 06:52:20;;;;;;;22.13;11.83;;;;;;;;;;5054017;28;20457;-77
2022/05/08 06:54:47;;;;;;;18.87;12.13;;;;;;;;;;5036082;28;20448;-77
2022/05/08 06:57:13;;;;;;;19.10;11.83;;;;;;;;;;5054031;28;20429;-77
2022/05/08 07:02:23;;;;;;;15.47;12.03;;;;;;;;;;5054421;28;20407;-77
2022/05/08 07:04:49;;;;;;;19.00;12.77;;;;;;;;;;5053568;28;20407;-77
2022/05/08 07:07:15;;;;;;;20.20;11.83;;;;;;;;;;5053782;28;20464;-77
2022/05/08 07:09:41;;;;;;;20.17;11.13;;;;;;;;;;5053821;28;20390;-77
2022/05/08 07:12:08;;;;;;;12.50;9.67;;;;;;;;;;5053834;28;20455;-77
2022/05/08 07:14:34;;;;;;;16.10;10.80;;;;;;;;;;5052946;28;20433;-77
2022/05/08 07:17:00;;;;;;;13.17;9.80;;;;;;;;;;5035837;28;20424;-77
2022/05/08 07:19:26;;;;;;;18.20;10.60;;;;;;;;;;5053559;28;20803;-77
2022/05/08 07:21:52;;;;;;;13.47;8.70;;;;;;;;;;5053428;28;20428;-77
2022/05/08 07:24:18;;;;;;;18.43;10.03;;;;;;;;;;5053154;28;20433;-77
2022/05/08 07:26:45;;;;;;;14.67;9.53;;;;;;;;;;5053529;28;22340;-77
2022/05/08 07:29:11;;;;;;;14.23;8.83;;;;;;;;;;5053329;28;20414;-77
2022/05/08 07:31:38;;;;;;;20.03;9.83;;;;;;;;;;5053364;28;20512;-77
2022/05/08 07:36:49;;;;;;;19.60;10.27;;;;;;;;;;5053795;28;20869;-78
2022/05/08 07:39:15;;;;;;;16.03;8.67;;;;;;;;;;5053331;28;20390;-76
2022/05/08 07:41:41;;;;;;;15.90;9.67;;;;;;;;;;5053287;28;20409;-76
2022/05/08 07:44:07;;;;;;;11.80;8.77;;;;;;;;;;5052548;28;20431;-77
2022/05/08 07:46:33;;;;;;;16.40;9.30;;;;;;;;;;5052693;28;20895;-77
2022/05/08 07:48:59;;;;;;;17.13;10.10;;;;;;;;;;5051558;28;20394;-79
2022/05/08 07:51:25;;;;;;;14.50;8.80;;;;;;;;;;5035293;28;20408;-77
2022/05/08 07:53:51;;;;;;;20.77;8.90;;;;;;;;;;5052591;28;20465;-78
2022/05/08 07:56:17;;;;;;;18.40;11.00;;;;;;;;;;5052837;28;20367;-77
2022/05/08 07:58:43;;;;;;;12.60;9.10;;;;;;;;;;5035480;28;20437;-77
2022/05/08 08:01:10;;;;;;;13.33;8.97;;;;;;;;;;5052668;28;20391;-77
2022/05/08 08:03:36;;;;;;;12.37;7.83;;;;;;;;;;5052511;28;20460;-77
2022/05/08 08:06:02;;;;;;;16.93;9.07;;;;;;;;;;5052913;28;20722;-77
2022/05/08 08:08:28;;;;;;;14.73;8.43;;;;;;;;;;5052758;28;20486;-77
2022/05/08 08:10:56;;;;;;;10.20;7.37;;;;;;;;;;5052780;28;20465;-78
2022/05/08 08:13:28;;;;;;;15.90;7.80;;;;;;;;;;5052411;28;20416;-78
2022/05/08 08:15:55;;;;;;;14.20;7.83;;;;;;;;;;5052572;28;20397;-77
2022/05/08 08:18:21;;;;;;;13.07;7.23;;;;;;;;;;5052541;28;20423;-77
2022/05/08 08:20:47;;;;;;;16.77;8.90;;;;;;;;;;5052682;28;20500;-77
2022/05/08 08:23:13;;;;;;;14.70;7.73;;;;;;;;;;5052382;28;20392;-78
2022/05/08 08:25:39;;;;;;;14.87;8.40;;;;;;;;;;5051747;28;20753;-77
2022/05/08 08:28:05;;;;;;;19.40;7.83;;;;;;;;;;5051163;28;21345;-78
2022/05/08 08:30:32;;;;;;;17.97;7.50;;;;;;;;;;5049943;28;20426;-77
2022/05/08 08:32:58;;;;;;;12.30;7.07;;;;;;;;;;5052190;28;20409;-78
2022/05/08 08:35:24;;;;;;;14.90;7.20;;;;;;;;;;5052473;28;20424;-77
2022/05/08 08:37:50;;;;;;;10.80;7.63;;;;;;;;;;5052504;28;20905;-77
2022/05/08 08:40:15;;;;;;;15.07;7.83;;;;;;;;;;5052315;28;20462;-77
2022/05/08 08:42:42;;;;;;;21.03;7.80;;;;;;;;;;5052479;28;20423;-77
2022/05/08 08:47:54;;;;;;;12.97;7.10;;;;;;;;;;5052393;28;20513;-78
2022/05/08 08:50:23;;;;;;;12.13;7.17;;;;;;;;;;5052244;28;20496;-77
2022/05/08 08:52:49;;;;;;;9.67;6.17;;;;;;;;;;5052441;28;20403;-75
2022/05/08 08:55:16;;;;;;;11.63;6.70;;;;;;;;;;5052257;28;20428;-77
2022/05/08 08:57:42;;;;;;;11.07;5.80;;;;;;;;;;5052577;28;20990;-77
2022/05/08 09:00:08;;;;;;;17.47;7.37;;;;;;;;;;5052345;28;20383;-77
2022/05/08 09:02:35;;;;;;;12.77;6.17;;;;;;;;;;5052146;28;20901;-77
2022/05/08 09:05:05;;;;;;;11.70;5.97;;;;;;;;;;5051706;28;20455;-77
2022/05/08 09:07:40;;;;;;;15.00;6.13;;;;;;;;;;5052042;28;20456;-76
2022/05/08 09:10:17;;;;;;;14.33;5.70;;;;;;;;;;5052133;28;20446;-74
2022/05/08 09:12:44;;;;;;;13.87;5.73;;;;;;;;;;5052086;28;20455;-74
2022/05/08 09:15:24;;;;;;;12.70;5.50;;;;;;;;;;5051706;28;20427;-75
2022/05/08 09:17:51;;;;;;;10.50;5.80;;;;;;;;;;5067455;28;20499;-75
2022/05/08 09:20:32;;;;;;;13.70;6.03;;;;;;;;;;5052060;28;20811;-75
2022/05/08 09:23:09;;;;;;;10.60;5.43;;;;;;;;;;5066535;28;20416;-75
2022/05/08 09:25:55;;;;;;;13.53;5.30;;;;;;;;;;5049663;28;20928;-75
2022/05/08 09:28:21;;;;;;;16.53;4.87;;;;;;;;;;5050925;28;21158;-75
2022/05/08 09:31:13;;;;;;;14.23;5.13;;;;;;;;;;5052038;28;20749;-75
2022/05/08 09:33:40;;;;;;;12.57;4.90;;;;;;;;;;5048104;28;20527;-75
2022/05/08 09:36:07;;;;;;;14.07;5.93;;;;;;;;;;5052095;28;20408;-74
2022/05/08 09:38:41;;;;;;;10.67;5.50;;;;;;;;;;5055047;28;20419;-74
2022/05/08 09:41:07;;;;;;;11.90;5.60;;;;;;;;;;5054407;28;20982;-74
2022/05/08 09:43:34;;;;;;;12.40;5.10;;;;;;;;;;5055175;28;20432;-75
2022/05/08 09:46:00;;;;;;;9.43;5.00;;;;;;;;;;5055531;28;20435;-75
2022/05/08 09:48:28;;;;;;;9.60;5.00;;;;;;;;;;5054119;28;20470;-74
2022/05/08 09:50:58;;;;;;;9.30;5.20;;;;;;;;;;5037416;28;20425;-74
2022/05/08 09:53:24;;;;;;;11.80;5.80;;;;;;;;;;5054901;28;20423;-74
2022/05/08 09:55:54;;;;;;;12.40;5.90;;;;;;;;;;5055440;28;20423;-74
2022/05/08 09:58:21;;;;;;;14.43;5.47;;;;;;;;;;5055297;28;20764;-75
2022/05/08 10:00:47;;;;;;;14.53;5.40;;;;;;;;;;5055185;28;20413;-74
2022/05/08 10:03:15;;;;;;;10.67;4.63;;;;;;;;;;5054792;28;20424;-75
2022/05/08 10:05:42;;;;;;;12.60;5.60;;;;;;;;;;5055324;28;20420;-74
2022/05/08 10:08:08;;;;;;;8.50;4.23;;;;;;;;;;5055157;28;20447;-74
2022/05/08 10:13:58;;;;;;;8.83;4.67;;;;;;;;;;5054838;28;20759;-75
2022/05/08 10:16:43;;;;;;;8.80;4.40;;;;;;;;;;5037119;28;20405;-75
2022/05/08 10:19:24;;;;;;;8.93;4.73;;;;;;;;;;5054773;28;20951;-74
2022/05/08 10:22:12;;;;;;;12.77;4.63;;;;;;;;;;5054926;28;20906;-74
2022/05/08 10:24:40;;;;;;;7.43;4.27;;;;;;;;;;5053585;28;20507;-75
2022/05/08 10:27:18;;;;;;;10.17;4.63;;;;;;;;;;5052999;28;20867;-75
2022/05/08 10:29:50;;;;;;;8.50;3.60;;;;;;;;;;5053155;28;20422;-74
2022/05/08 10:32:45;;;;;;;8.80;4.13;;;;;;;;;;5054385;28;20894;-76
2022/05/08 10:35:12;;;;;;;7.83;3.67;;;;;;;;;;5054229;28;20430;-76
2022/05/08 10:37:42;;;;;;;9.20;3.83;;;;;;;;;;5054625;28;20454;-76
2022/05/08 10:40:23;;;;;;;9.47;3.43;;;;;;;;;;5054650;28;20456;-76
2022/05/08 10:42:55;;;;;;;8.83;3.43;;;;;;;;;;5053275;28;20438;-76
2022/05/08 10:45:33;;;;;;;8.27;2.97;;;;;;;;;;5054190;28;20439;-76
2022/05/08 10:47:59;;;;;;;9.00;2.90;;;;;;;;;;5054192;28;20499;-76
2022/05/08 10:50:25;;;;;;;7.33;3.10;;;;;;;;;;5053782;28;20417;-76
2022/05/08 10:52:51;;;;;;;7.10;3.07;;;;;;;;;;5054300;28;20447;-76
2022/05/08 10:55:18;;;;;;;6.90;2.93;;;;;;;;;;5053854;28;20428;-76
2022/05/08 10:57:45;;;;;;;3.90;2.50;;;;;;;;;;5054190;28;20423;-76
2022/05/08 11:00:12;;;;;;;5.33;2.53;;;;;;;;;;5054104;28;20412;-75
2022/05/08 11:02:39;;;;;;;8.40;2.90;;;;;;;;;;5053043;28;20829;-76
2022/05/08 11:05:06;;;;;;;5.00;2.60;;;;;;;;;;5053645;28;20447;-76
2022/05/08 11:07:32;;;;;;;6.90;2.43;;;;;;;;;;5053978;28;20456;-76
2022/05/08 11:09:59;;;;;;;6.33;2.73;;;;;;;;;;5054097;28;20401;-76
2022/05/08 11:12:25;;;;;;;6.43;2.80;;;;;;;;;;5054149;28;20831;-76
2022/05/08 11:14:51;;;;;;;7.90;2.87;;;;;;;;;;5053536;28;20433;-76
2022/05/08 11:17:19;;;;;;;10.53;2.80;;;;;;;;;;5053702;28;20427;-77
2022/05/08 11:19:57;;;;;;;8.83;3.27;;;;;;;;;;5053680;28;20408;-77
2022/05/08 11:22:23;;;;;;;5.10;2.93;;;;;;;;;;5053769;28;20913;-76
2022/05/08 11:24:49;;;;;;;7.47;3.07;;;;;;;;;;5053437;28;20781;-76
2022/05/08 11:27:15;;;;;;;6.00;2.77;;;;;;;;;;5035929;28;20811;-77
2022/05/08 11:29:48;;;;;;;7.00;3.07;;;;;;;;;;5052636;28;20437;-76
2022/05/08 11:38:03;;;;;;;9.23;2.97;;;;;;;;;;5053207;28;20582;-77
2022/05/08 11:40:30;;;;;;;4.93;2.30;;;;;;;;;;5052366;28;20415;-77
2022/05/08 11:42:56;;;;;;;4.23;2.30;;;;;;;;;;5034726;28;20413;-76
2022/05/08 11:45:22;;;;;;;7.10;2.43;;;;;;;;;;5052325;28;20515;-77
2022/05/08 11:47:53;;;;;;;9.17;3.10;;;;;;;;;;5053010;28;20464;-76
2022/05/08 11:50:20;;;;;;;6.50;2.37;;;;;;;;;;5053360;28;20409;-77
2022/05/08 11:52:46;;;;;;;6.97;2.90;;;;;;;;;;5052901;28;20462;-77
2022/05/08 11:55:13;;;;;;;5.20;2.30;;;;;;;;;;5051334;28;20442;-77
2022/05/08 11:57:45;;;;;;;5.47;2.30;;;;;;;;;;5052815;28;20546;-77
2022/05/08 12:00:12;;;;;;;8.07;2.63;;;;;;;;;;5052340;28;20425;-76
2022/05/08 12:02:42;;;;;;;9.13;3.00;;;;;;;;;;5052698;28;20422;-77
2022/05/08 12:05:27;;;;;;;5.73;2.90;;;;;;;;;;5053369;28;20483;-77
2022/05/08 12:07:53;;;;;;;5.63;2.37;;;;;;;;;;5051401;28;20462;-76
2022/05/08 12:10:19;;;;;;;8.40;3.27;;;;;;;;;;5052629;28;20479;-77
2022/05/08 12:12:46;;;;;;;9.37;4.93;;;;;;;;;;5052796;28;20412;-77
2022/05/08 12:15:12;;;;;;;7.43;2.50;;;;;;;;;;5052316;28;20434;-77
2022/05/08 12:17:45;;;;;;;9.27;2.80;;;;;;;;;;5053110;28;20414;-77
2022/05/08 12:20:12;;;;;;;8.93;2.70;;;;;;;;;;5052640;28;20418;-76
2022/05/08 12:22:38;;;;;;;11.10;3.80;;;;;;;;;;5052727;28;20470;-76
2022/05/08 12:25:05;;;;;;;9.93;3.33;;;;;;;;;;5052181;28;20437;-77
2022/05/08 12:27:31;;;;;;;5.40;2.57;;;;;;;;;;5051412;28;21000;-76
2022/05/08 12:29:57;;;;;;;7.20;2.70;;;;;;;;;;5052176;28;20807;-76
2022/05/08 12:32:25;;;;;;;8.53;3.13;;;;;;;;;;5034985;28;20850;-77
2022/05/08 12:34:53;;;;;;;8.87;2.43;;;;;;;;;;5052317;28;20495;-77
2022/05/08 12:37:19;;;;;;;8.03;2.80;;;;;;;;;;5052657;28;20762;-75
2022/05/08 12:39:45;;;;;;;6.93;2.50;;;;;;;;;;5052689;28;20405;-76
2022/05/08 12:42:12;;;;;;;6.03;2.60;;;;;;;;;;5052620;28;20414;-76
2022/05/08 12:44:38;;;;;;;4.70;2.87;;;;;;;;;;5052206;28;20456;-76
2022/05/08 12:47:08;;;;;;;7.53;2.67;;;;;;;;;;5052398;28;20453;-76
2022/05/08 12:49:35;;;;;;;7.90;2.80;;;;;;;;;;5034687;28;20512;-76
2022/05/08 12:52:01;;;;;;;4.90;1.80;;;;;;;;;;5052373;28;20400;-76
2022/05/08 12:54:27;;;;;;;3.07;1.90;;;;;;;;;;5034409;28;20478;-76
2022/05/08 12:56:53;;;;;;;4.70;2.30;;;;;;;;;;5052561;28;20411;-76
2022/05/08 13:02:04;;;;;;;5.70;2.20;;;;;;;;;;5052347;28;20444;-77
2022/05/08 13:04:30;;;;;;;4.27;1.93;;;;;;;;;;5051882;28;20416;-77
2022/05/08 13:06:56;;;;;;;3.87;2.07;;;;;;;;;;5052559;28;20412;-76
2022/05/08 13:09:22;;;;;;;6.63;2.27;;;;;;;;;;5052355;28;20402;-76
2022/05/08 13:11:48;;;;;;;4.67;2.00;;;;;;;;;;5052992;28;20408;-77
2022/05/08 13:14:14;;;;;;;6.00;2.10;;;;;;;;;;5055673;28;20432;-78
2022/05/08 13:16:40;;;;;;;6.40;2.63;;;;;;;;;;5056281;28;20502;-77
2022/05/08 13:19:06;;;;;;;6.33;2.17;;;;;;;;;;5056244;28;20417;-77
2022/05/08 13:21:32;;;;;;;3.20;2.10;;;;;;;;;;5056160;28;20546;-77
2022/05/08 13:23:59;;;;;;;6.73;2.40;;;;;;;;;;5056012;28;20458;-77
2022/05/08 13:26:25;;;;;;;5.93;2.00;;;;;;;;;;5055874;28;20474;-77
2022/05/08 13:28:51;;;;;;;6.67;1.90;;;;;;;;;;5055938;28;20527;-77
2022/05/08 13:31:17;;;;;;;4.40;2.20;;;;;;;;;;5056282;28;20478;-77
2022/05/08 13:33:44;;;;;;;4.43;1.60;;;;;;;;;;5055722;28;20483;-77
2022/05/08 13:36:10;;;;;;;3.40;1.53;;;;;;;;;;5056030;28;20843;-77
2022/05/08 13:38:39;;;;;;;4.20;1.87;;;;;;;;;;5055993;28;20782;-77
2022/05/08 13:41:05;;;;;;;3.90;1.40;;;;;;;;;;5055836;28;20408;-77
2022/05/08 13:43:31;;;;;;;4.83;1.50;;;;;;;;;;5053946;28;20444;-77
2022/05/08 13:45:57;;;;;;;4.13;1.70;;;;;;;;;;5055716;28;20416;-77
2022/05/08 13:48:23;;;;;;;5.43;1.97;;;;;;;;;;5055548;28;20561;-77
2022/05/08 13:50:50;;;;;;;4.77;2.27;;;;;;;;;;5055619;28;20812;-77
2022/05/08 13:53:16;;;;;;;5.03;2.00;;;;;;;;;;5055177;28;20409;-77
2022/05/08 13:55:45;;;;;;;9.07;2.90;;;;;;;;;;5055629;28;20426;-77
2022/05/08 13:58:11;;;;;;;3.53;2.10;;;;;;;;;;5055361;28;20423;-77
2022/05/08 14:00:39;;;;;;;4.57;2.03;;;;;;;;;;5055255;28;20422;-76
2022/05/08 14:03:07;;;;;;;6.60;2.33;;;;;;;;;;5054981;28;20418;-77
2022/05/08 14:05:33;;;;;;;4.07;1.90;;;;;;;;;;5053963;28;20531;-77
2022/05/08 14:07:59;;;;;;;5.50;2.20;;;;;;;;;;5055397;28;20506;-77
2022/05/08 14:10:26;;;;;;;7.43;2.60;;;;;;;;;;5055317;28;20738;-78
2022/05/08 14:12:52;;;;;;;5.87;2.13;;;;;;;;;;5054753;28;20413;-77
2022/05/08 14:15:21;;;;;;;5.03;2.27;;;;;;;;;;5054979;28;20430;-77
2022/05/08 14:17:48;;;;;;;5.40;2.77;;;;;;;;;;5055238;28;20511;-77
2022/05/08 14:20:14;;;;;;;5.90;2.10;;;;;;;;;;5055277;28;20466;-77
2022/05/08 14:22:41;;;;;;;6.87;2.50;;;;;;;;;;5054891;28;20773;-76
2022/05/08 14:25:09;;;;;;;5.23;2.17;;;;;;;;;;5053609;28;20446;-77
2022/05/08 14:27:35;;;;;;;4.20;2.00;;;;;;;;;;5054977;28;20457;-77
2022/05/08 14:30:01;;;;;;;3.50;1.90;;;;;;;;;;5054707;28;20799;-78
2022/05/08 14:37:56;;;;;;;3.63;1.80;;;;;;;;;;5039905;28;20411;-77
2022/05/08 14:40:24;;;;;;;7.33;2.30;;;;;;;;;;5054535;28;20881;-78
2022/05/08 14:42:51;;;;;;;6.43;1.77;;;;;;;;;;5054595;28;20422;-75
2022/05/08 14:45:16;;;;;;;5.43;1.80;;;;;;;;;;5054321;28;20466;-76
2022/05/08 14:47:42;;;;;;;4.37;2.80;;;;;;;;;;5054579;28;20493;-77
2022/05/08 14:50:09;;;;;;;5.10;2.30;;;;;;;;;;5054548;28;20410;-77
2022/05/08 14:52:35;;;;;;;4.00;2.03;;;;;;;;;;5054555;28;20905;-77
2022/05/08 14:55:01;;;;;;;3.70;1.87;;;;;;;;;;5053872;28;20443;-77
2022/05/08 14:57:27;;;;;;;5.83;2.10;;;;;;;;;;5054397;28;20805;-77
2022/05/08 14:59:53;;;;;;;4.33;2.10;;;;;;;;;;5054251;28;20419;-76
2022/05/08 15:02:19;;;;;;;4.10;1.40;;;;;;;;;;5054120;28;20856;-76
2022/05/08 15:04:47;;;;;;;2.93;1.40;;;;;;;;;;5053761;28;20434;-78
2022/05/08 15:07:13;;;;;;;4.17;1.63;;;;;;;;;;5053886;28;20455;-77